Time;durP1;ratioP1;P1;durP2;ratioP2;P2;SDS_P1;SDS_P2;PMS_P1;PMS_P2;Temp;Humidity;BMP_temperature;BMP_pressure;BME280_temperature;BME280_humidity;BME280_pressure;Samples;Min_cycle;Max_cycle;Signal;HPM_P1;HPM_P2
2021/04/18 00:01:05;;;;;;;4.03;3.60;;;6.70;99.90;;;;;;5071490;28;20201;-60
2021/04/18 00:03:31;;;;;;;4.37;3.80;;;6.70;99.90;;;;;;5071222;28;20200;-61
2021/04/18 00:05:57;;;;;;;4.87;3.87;;;6.70;99.90;;;;;;5071685;28;20211;-61
2021/04/18 00:08:23;;;;;;;4.63;4.00;;;6.70;99.90;;;;;;5070951;28;20248;-61
2021/04/18 00:10:51;;;;;;;4.23;3.80;;;6.70;99.90;;;;;;5071076;28;20288;-60
2021/04/18 00:13:18;;;;;;;4.03;3.63;;;6.60;99.90;;;;;;5071212;28;20220;-61
2021/04/18 00:15:45;;;;;;;5.67;4.37;;;6.60;99.90;;;;;;5071459;28;20209;-60
2021/04/18 00:18:13;;;;;;;4.43;4.03;;;6.70;99.90;;;;;;5071257;28;20278;-61
2021/04/18 00:20:40;;;;;;;4.43;4.03;;;6.70;99.90;;;;;;5071155;28;20222;-60
2021/04/18 00:23:06;;;;;;;4.63;3.80;;;6.80;99.90;;;;;;5071032;28;20208;-60
2021/04/18 00:25:33;;;;;;;4.23;3.83;;;6.80;99.90;;;;;;5071220;28;20559;-61
2021/04/18 00:28:00;;;;;;;4.77;3.60;;;6.80;99.90;;;;;;5070918;28;20747;-61
2021/04/18 00:30:26;;;;;;;4.37;3.97;;;6.70;99.90;;;;;;5071081;28;20207;-61
2021/04/18 00:32:53;;;;;;;4.27;3.87;;;6.50;99.90;;;;;;5071115;28;20741;-60
2021/04/18 00:35:20;;;;;;;5.23;4.40;;;6.40;99.90;;;;;;5070977;28;20209;-60
2021/04/18 00:37:47;;;;;;;4.20;3.80;;;6.30;99.90;;;;;;5070720;28;20204;-60
2021/04/18 00:40:15;;;;;;;4.40;4.00;;;6.30;99.90;;;;;;5071308;28;20231;-60
2021/04/18 00:42:42;;;;;;;5.00;4.50;;;6.40;99.90;;;;;;5071107;28;20205;-61
2021/04/18 00:45:11;;;;;;;5.47;4.27;;;6.50;99.90;;;;;;5071004;28;20250;-61
2021/04/18 00:47:43;;;;;;;6.40;4.70;;;6.70;99.90;;;;;;5070855;28;20258;-59
2021/04/18 00:50:11;;;;;;;5.07;4.57;;;6.80;99.90;;;;;;5075307;28;20261;-60
2021/04/18 00:52:38;;;;;;;5.27;4.47;;;6.80;99.90;;;;;;5075681;28;20204;-59
2021/04/18 00:55:06;;;;;;;4.83;4.33;;;6.80;99.90;;;;;;5076091;28;20611;-60
2021/04/18 00:57:33;;;;;;;5.50;5.00;;;6.90;99.90;;;;;;5075974;28;20213;-60
2021/04/18 01:00:00;;;;;;;5.40;4.90;;;6.90;99.90;;;;;;5075082;28;20212;-60
2021/04/18 01:02:27;;;;;;;5.57;4.77;;;7.00;99.90;;;;;;5074955;28;20213;-60
2021/04/18 01:04:53;;;;;;;5.53;4.97;;;7.00;99.90;;;;;;5074786;28;20601;-60
2021/04/18 01:07:20;;;;;;;5.30;4.77;;;7.00;99.90;;;;;;5075002;28;20208;-60
2021/04/18 01:09:46;;;;;;;5.37;4.87;;;7.20;99.90;;;;;;5074416;28;20241;-59
2021/04/18 01:12:14;;;;;;;5.63;4.73;;;7.20;99.90;;;;;;5074637;28;20295;-60
2021/04/18 01:14:40;;;;;;;4.90;4.43;;;7.30;99.90;;;;;;5074492;28;20224;-60
2021/04/18 01:17:06;;;;;;;5.27;4.27;;;7.30;99.90;;;;;;5074668;28;20726;-60
2021/04/18 01:19:33;;;;;;;5.23;4.73;;;7.20;99.90;;;;;;5074591;28;20225;-60
2021/04/18 01:22:00;;;;;;;5.27;4.77;;;7.20;99.90;;;;;;5074587;28;20209;-60
2021/04/18 01:24:26;;;;;;;5.27;4.77;;;7.30;99.90;;;;;;5074445;28;20226;-60
2021/04/18 01:26:53;;;;;;;4.57;4.17;;;7.30;99.90;;;;;;5074403;28;20205;-59
2021/04/18 01:29:19;;;;;;;4.60;4.10;;;7.40;99.90;;;;;;5074149;28;20232;-60
2021/04/18 01:31:46;;;;;;;7.27;4.47;;;7.40;99.90;;;;;;5074521;28;20224;-60
2021/04/18 01:34:13;;;;;;;5.23;4.73;;;7.40;99.90;;;;;;5074283;28;20240;-60
2021/04/18 01:36:42;;;;;;;4.83;4.33;;;7.30;99.90;;;;;;5074745;28;20204;-59
2021/04/18 01:39:09;;;;;;;5.53;4.90;;;7.20;99.90;;;;;;5074507;28;20229;-60
2021/04/18 01:41:35;;;;;;;5.43;4.60;;;7.20;99.90;;;;;;5074805;28;20205;-60
2021/04/18 01:44:04;;;;;;;4.80;4.33;;;7.20;99.90;;;;;;5074158;28;20684;-60
2021/04/18 01:46:30;;;;;;;5.10;4.37;;;7.10;99.90;;;;;;5074309;28;20200;-61
2021/04/18 01:48:56;;;;;;;4.83;4.43;;;7.00;99.90;;;;;;5074215;28;20240;-59
2021/04/18 01:51:24;;;;;;;5.40;4.30;;;7.00;99.90;;;;;;5073950;28;20698;-60
2021/04/18 01:53:51;;;;;;;4.63;4.10;;;7.00;99.90;;;;;;5073853;28;20232;-60
2021/04/18 01:56:18;;;;;;;4.77;4.10;;;6.90;99.90;;;;;;5074094;28;20209;-60
2021/04/18 01:58:44;;;;;;;6.50;4.67;;;6.90;99.90;;;;;;5073707;28;20712;-59
2021/04/18 02:01:10;;;;;;;4.57;4.10;;;6.90;99.90;;;;;;5073734;28;20574;-60
2021/04/18 02:03:36;;;;;;;6.23;4.73;;;6.80;99.90;;;;;;5074065;28;20208;-60
2021/04/18 02:06:03;;;;;;;5.73;4.27;;;6.70;99.90;;;;;;5074070;28;20208;-60
2021/04/18 02:08:29;;;;;;;5.10;4.60;;;6.70;99.90;;;;;;5073809;28;20736;-59
2021/04/18 02:10:56;;;;;;;4.87;4.00;;;6.70;99.90;;;;;;5074266;28;20205;-60
2021/04/18 02:13:23;;;;;;;5.20;4.70;;;6.80;99.90;;;;;;5073797;28;20707;-60
2021/04/18 02:15:49;;;;;;;6.10;4.70;;;6.80;99.90;;;;;;5073644;28;20209;-60
2021/04/18 02:18:15;;;;;;;5.93;4.90;;;6.90;99.90;;;;;;5073243;28;20240;-60
2021/04/18 02:20:41;;;;;;;5.30;4.80;;;6.80;99.90;;;;;;5073409;28;20216;-61
2021/04/18 02:23:07;;;;;;;6.00;5.00;;;6.90;99.90;;;;;;5073475;28;20201;-60
2021/04/18 02:25:34;;;;;;;6.27;4.97;;;7.00;99.90;;;;;;5072953;28;20740;-61
2021/04/18 02:28:00;;;;;;;5.73;4.60;;;7.00;99.90;;;;;;5072825;28;20224;-60
2021/04/18 02:30:27;;;;;;;6.07;5.10;;;7.00;99.90;;;;;;5072625;28;20212;-60
2021/04/18 02:32:53;;;;;;;5.20;4.70;;;7.00;99.90;;;;;;5072853;28;20205;-60
2021/04/18 02:35:19;;;;;;;5.10;4.60;;;7.10;99.90;;;;;;5072532;28;20583;-61
2021/04/18 02:37:46;;;;;;;6.30;4.77;;;7.10;99.90;;;;;;5072765;28;20212;-61
2021/04/18 02:40:13;;;;;;;5.37;4.57;;;7.20;99.90;;;;;;5072901;28;20247;-61
2021/04/18 02:42:40;;;;;;;4.97;4.30;;;7.10;99.90;;;;;;5072541;28;20205;-60
2021/04/18 02:45:08;;;;;;;5.53;4.70;;;7.10;99.90;;;;;;5072460;28;20205;-62
2021/04/18 02:47:35;;;;;;;5.17;4.60;;;7.10;99.90;;;;;;5072335;28;20213;-60
2021/04/18 02:50:01;;;;;;;5.80;4.57;;;7.10;99.90;;;;;;5072829;28;20428;-60
2021/04/18 02:52:28;;;;;;;6.97;4.80;;;7.10;99.90;;;;;;5072813;28;20212;-61
2021/04/18 02:54:54;;;;;;;5.47;4.67;;;7.20;99.90;;;;;;5072372;28;20224;-61
2021/04/18 02:57:20;;;;;;;7.80;5.27;;;7.30;99.90;;;;;;5072168;28;20205;-61
2021/04/18 02:59:46;;;;;;;8.23;5.07;;;7.40;99.90;;;;;;5072048;28;20596;-61
2021/04/18 03:02:12;;;;;;;6.63;4.90;;;7.40;99.90;;;;;;5072227;28;20211;-61
2021/04/18 03:04:39;;;;;;;6.03;4.63;;;7.50;99.90;;;;;;5072236;28;20209;-60
2021/04/18 03:07:06;;;;;;;5.87;4.43;;;7.50;99.90;;;;;;5072375;28;20235;-61
2021/04/18 03:09:32;;;;;;;5.17;4.67;;;7.50;99.90;;;;;;5087301;22;20696;-64
2021/04/18 03:11:58;;;;;;;5.60;4.43;;;7.60;99.90;;;;;;5072374;28;20250;-63
2021/04/18 03:14:25;;;;;;;6.00;4.67;;;7.60;99.90;;;;;;5073772;28;20224;-64
2021/04/18 03:16:51;;;;;;;4.80;4.40;;;7.60;99.90;;;;;;5074778;28;20610;-63
2021/04/18 03:19:17;;;;;;;5.60;4.80;;;7.50;99.90;;;;;;5077643;28;20235;-63
2021/04/18 03:21:44;;;;;;;6.57;4.40;;;7.60;99.90;;;;;;5074377;28;20209;-64
2021/04/18 03:24:11;;;;;;;5.10;4.27;;;7.60;99.90;;;;;;5072555;28;20672;-64
2021/04/18 03:26:37;;;;;;;6.27;4.50;;;7.60;99.90;;;;;;5072576;28;20209;-64
2021/04/18 03:29:04;;;;;;;4.50;4.10;;;7.60;99.90;;;;;;5073271;28;20225;-63
2021/04/18 03:31:30;;;;;;;4.87;4.37;;;7.60;99.90;;;;;;5073426;28;20208;-64
2021/04/18 03:33:56;;;;;;;5.47;4.50;;;7.60;99.90;;;;;;5072077;28;20228;-64
2021/04/18 03:36:23;;;;;;;4.70;4.30;;;7.60;99.90;;;;;;5072066;28;20205;-64
2021/04/18 03:38:50;;;;;;;5.20;4.70;;;7.40;99.90;;;;;;5072085;28;20217;-64
2021/04/18 03:41:16;;;;;;;5.17;4.23;;;7.30;99.90;;;;;;5072182;28;20197;-63
2021/04/18 03:43:42;;;;;;;4.67;4.07;;;7.30;99.90;;;;;;5072248;28;20205;-64
2021/04/18 03:46:08;;;;;;;5.60;4.70;;;7.30;99.90;;;;;;5072010;28;20205;-64
2021/04/18 03:48:35;;;;;;;5.63;4.43;;;7.30;99.90;;;;;;5071760;28;20221;-63
2021/04/18 03:51:01;;;;;;;6.87;4.53;;;7.40;99.90;;;;;;5072379;28;20211;-63
2021/04/18 03:53:27;;;;;;;4.80;4.30;;;7.40;99.90;;;;;;5071955;28;20251;-64
2021/04/18 03:55:54;;;;;;;5.00;4.43;;;7.40;99.90;;;;;;5072221;28;20201;-64
2021/04/18 03:58:20;;;;;;;5.53;4.63;;;7.30;99.90;;;;;;5071747;28;20235;-64
2021/04/18 04:00:46;;;;;;;4.70;4.20;;;7.40;99.90;;;;;;5071423;28;20220;-63
2021/04/18 04:03:13;;;;;;;6.53;4.63;;;7.40;99.90;;;;;;5071415;28;20205;-63
2021/04/18 04:05:39;;;;;;;5.50;4.23;;;7.50;99.90;;;;;;5071312;28;20213;-63
2021/04/18 04:08:06;;;;;;;8.67;7.77;;;7.50;99.90;;;;;;5071299;28;20204;-63
2021/04/18 04:10:33;;;;;;;9.23;8.40;;;7.50;99.90;;;;;;5072650;28;20209;-64
2021/04/18 04:13:00;;;;;;;6.77;5.57;;;7.50;99.90;;;;;;5075950;28;20204;-64
2021/04/18 04:15:26;;;;;;;6.27;4.70;;;7.60;99.90;;;;;;5076201;28;20221;-63
2021/04/18 04:17:52;;;;;;;8.30;5.00;;;7.60;99.90;;;;;;5076185;28;20208;-62
2021/04/18 04:20:19;;;;;;;5.77;4.87;;;7.70;99.90;;;;;;5077040;28;20201;-64
2021/04/18 04:22:45;;;;;;;5.93;4.93;;;7.70;99.90;;;;;;5074974;28;20254;-64
2021/04/18 04:25:12;;;;;;;7.17;5.20;;;7.80;99.90;;;;;;5073539;28;20201;-64
2021/04/18 04:27:38;;;;;;;5.97;4.83;;;7.80;99.90;;;;;;5073728;28;20307;-64
2021/04/18 04:30:07;;;;;;;13.40;9.87;;;7.80;99.90;;;;;;5073243;28;20225;-63
2021/04/18 04:32:33;;;;;;;11.00;8.30;;;7.80;99.90;;;;;;5073180;28;20216;-63
2021/04/18 04:35:00;;;;;;;7.33;5.07;;;7.80;99.90;;;;;;5072525;28;20715;-63
2021/04/18 04:37:26;;;;;;;5.87;5.27;;;7.90;99.90;;;;;;5072266;28;20204;-63
2021/04/18 04:39:52;;;;;;;6.83;6.13;;;7.90;99.90;;;;;;5071950;28;20228;-63
2021/04/18 04:42:19;;;;;;;6.97;5.90;;;7.90;99.90;;;;;;5072746;28;20688;-64
2021/04/18 04:44:45;;;;;;;5.50;5.00;;;7.90;99.90;;;;;;5072776;28;20211;-63
2021/04/18 04:47:12;;;;;;;6.03;5.23;;;7.90;99.90;;;;;;5071989;28;20211;-63
2021/04/18 04:49:38;;;;;;;6.07;5.13;;;7.90;99.90;;;;;;5072067;28;20227;-66
2021/04/18 04:52:07;;;;;;;6.23;5.00;;;7.90;99.90;;;;;;5071639;28;20402;-63
2021/04/18 04:54:33;;;;;;;5.90;5.20;;;7.90;99.90;;;;;;5071514;28;20378;-64
2021/04/18 04:56:59;;;;;;;7.07;5.63;;;7.90;99.90;;;;;;5071844;28;20205;-63
2021/04/18 04:59:26;;;;;;;6.13;5.00;;;7.90;99.90;;;;;;5071492;28;20692;-64
2021/04/18 05:01:52;;;;;;;7.20;4.93;;;7.90;99.90;;;;;;5072023;28;20205;-65
2021/04/18 05:04:19;;;;;;;7.17;5.40;;;7.90;99.90;;;;;;5071999;28;20208;-64
2021/04/18 05:06:45;;;;;;;6.13;5.50;;;7.90;99.90;;;;;;5072026;28;20209;-64
2021/04/18 05:09:12;;;;;;;8.00;5.43;;;7.90;99.90;;;;;;5071235;28;20293;-63
2021/04/18 05:11:38;;;;;;;5.53;4.97;;;7.90;99.90;;;;;;5071512;28;20267;-63
2021/04/18 05:14:04;;;;;;;7.77;5.80;;;7.90;99.90;;;;;;5071458;28;20221;-65
2021/04/18 05:16:30;;;;;;;7.27;6.20;;;7.90;99.90;;;;;;5070894;28;20580;-65
2021/04/18 05:18:57;;;;;;;6.10;5.57;;;7.90;99.90;;;;;;5070763;28;20229;-65
2021/04/18 05:21:25;;;;;;;12.93;9.07;;;7.80;99.90;;;;;;5070913;28;20205;-65
2021/04/18 05:23:52;;;;;;;9.10;5.67;;;7.80;99.90;;;;;;5070998;28;20205;-65
2021/04/18 05:26:18;;;;;;;6.60;5.90;;;7.70;99.90;;;;;;5071219;28;20483;-64
2021/04/18 05:28:44;;;;;;;6.70;6.00;;;7.80;99.90;;;;;;5070699;28;20697;-64
2021/04/18 05:31:10;;;;;;;7.23;6.03;;;7.80;99.90;;;;;;5071262;28;20216;-65
2021/04/18 05:33:37;;;;;;;7.60;5.77;;;7.80;99.90;;;;;;5070640;28;20225;-65
2021/04/18 05:36:03;;;;;;;9.00;7.33;;;7.90;99.90;;;;;;5073857;28;20207;-64
2021/04/18 05:38:30;;;;;;;10.27;8.20;;;7.90;99.90;;;;;;5075049;28;20229;-64
2021/04/18 05:40:57;;;;;;;10.03;6.73;;;8.00;99.90;;;;;;5074733;28;20212;-64
2021/04/18 05:43:25;;;;;;;8.17;6.20;;;8.10;99.90;;;;;;5074371;28;20212;-64
2021/04/18 05:45:51;;;;;;;8.80;7.00;;;8.20;99.90;;;;;;5075219;28;20251;-64
2021/04/18 05:48:18;;;;;;;15.57;11.30;;;8.20;99.90;;;;;;5073900;28;20224;-63
2021/04/18 05:50:44;;;;;;;10.97;7.73;;;8.30;99.90;;;;;;5074336;28;20579;-65
2021/04/18 05:53:11;;;;;;;8.77;7.20;;;8.40;99.90;;;;;;5074619;28;20205;-65
2021/04/18 05:55:38;;;;;;;8.40;7.10;;;8.50;99.90;;;;;;5073941;28;20323;-63
2021/04/18 05:58:05;;;;;;;10.30;6.40;;;8.60;99.90;;;;;;5073602;28;20680;-64
2021/04/18 06:00:31;;;;;;;6.97;5.93;;;8.70;99.90;;;;;;5073731;28;20196;-63
2021/04/18 06:02:57;;;;;;;7.70;6.77;;;8.90;99.90;;;;;;5073729;28;20209;-63
2021/04/18 06:05:24;;;;;;;18.80;13.37;;;8.90;99.90;;;;;;5073710;28;20270;-64
2021/04/18 06:07:50;;;;;;;8.00;6.27;;;9.00;99.90;;;;;;5073821;28;20223;-63
2021/04/18 06:10:17;;;;;;;6.23;5.63;;;9.20;99.90;;;;;;5073371;28;20680;-63
2021/04/18 06:12:44;;;;;;;6.90;5.90;;;9.20;99.90;;;;;;5073579;28;20209;-64
2021/04/18 06:15:11;;;;;;;10.00;6.17;;;9.20;99.90;;;;;;5073313;28;20224;-64
2021/04/18 06:17:37;;;;;;;11.37;8.37;;;9.30;99.90;;;;;;5073557;28;20205;-64
2021/04/18 06:20:05;;;;;;;8.20;6.07;;;9.40;99.90;;;;;;5073381;28;20229;-64
2021/04/18 06:22:32;;;;;;;7.17;6.47;;;9.40;99.90;;;;;;5073387;28;20201;-64
2021/04/18 06:24:58;;;;;;;6.50;5.90;;;9.50;99.90;;;;;;5073222;28;20208;-63
2021/04/18 06:27:25;;;;;;;6.70;6.00;;;9.50;99.90;;;;;;5073364;28;20463;-63
2021/04/18 06:29:52;;;;;;;8.50;6.90;;;9.50;99.90;;;;;;5072989;28;20229;-64
2021/04/18 06:32:18;;;;;;;6.80;6.10;;;9.60;99.90;;;;;;5073487;28;20209;-64
2021/04/18 06:34:44;;;;;;;7.83;6.60;;;9.70;99.90;;;;;;5073319;28;20229;-64
2021/04/18 06:37:10;;;;;;;10.33;7.57;;;9.80;99.90;;;;;;5073364;28;20295;-64
2021/04/18 06:39:37;;;;;;;6.90;6.10;;;9.80;99.90;;;;;;5073646;28;20228;-65
2021/04/18 06:42:05;;;;;;;6.27;5.67;;;9.90;99.90;;;;;;5073216;28;20205;-65
2021/04/18 06:44:32;;;;;;;7.60;6.57;;;10.00;99.90;;;;;;5073451;28;20212;-66
2021/04/18 06:47:01;;;;;;;7.40;5.63;;;10.10;99.90;;;;;;5073073;28;20205;-65
2021/04/18 06:49:28;;;;;;;7.03;6.33;;;10.30;99.90;;;;;;5072773;28;20754;-65
2021/04/18 06:51:55;;;;;;;6.90;6.20;;;10.50;99.60;;;;;;5073153;28;20591;-63
2021/04/18 06:54:21;;;;;;;7.57;6.77;;;10.50;99.80;;;;;;5073422;28;20694;-63
2021/04/18 06:56:48;;;;;;;9.47;7.00;;;10.40;98.90;;;;;;5073756;28;20215;-63
2021/04/18 06:59:14;;;;;;;7.43;6.63;;;10.30;99.20;;;;;;5073401;28;20228;-63
2021/04/18 07:01:41;;;;;;;8.00;6.33;;;10.40;99.50;;;;;;5073802;28;20209;-63
2021/04/18 07:04:13;;;;;;;8.53;7.00;;;10.50;98.90;;;;;;5073403;28;20277;-63
2021/04/18 07:06:41;;;;;;;7.27;6.57;;;10.60;99.00;;;;;;5073618;28;20201;-63
2021/04/18 07:09:07;;;;;;;9.47;6.50;;;10.70;99.20;;;;;;5073193;28;20295;-63
2021/04/18 07:11:48;;;;;;;9.53;7.40;;;10.90;98.90;;;;;;5073769;28;20207;-64
2021/04/18 07:14:28;;;;;;;8.23;6.30;;;11.10;99.10;;;;;;5073471;28;20216;-64
2021/04/18 07:17:05;;;;;;;18.83;15.77;;;11.30;99.00;;;;;;5073552;28;20578;-64
2021/04/18 07:19:34;;;;;;;6.57;5.97;;;11.50;99.00;;;;;;5073295;28;20228;-64
2021/04/18 07:22:01;;;;;;;8.17;6.67;;;11.70;98.30;;;;;;5074448;28;20200;-63
2021/04/18 07:24:29;;;;;;;7.97;6.73;;;11.80;98.00;;;;;;5073217;28;20212;-63
2021/04/18 07:26:57;;;;;;;10.03;7.93;;;11.90;97.50;;;;;;5073061;28;20209;-63
2021/04/18 07:29:25;;;;;;;16.27;11.23;;;12.00;97.10;;;;;;5073329;28;20232;-63
2021/04/18 07:31:52;;;;;;;9.87;6.53;;;12.10;97.00;;;;;;5073587;28;20735;-63
2021/04/18 07:34:20;;;;;;;12.73;9.30;;;12.10;97.00;;;;;;5074354;28;20315;-64
2021/04/18 07:36:49;;;;;;;8.00;7.07;;;12.30;96.50;;;;;;5073999;28;20209;-64
2021/04/18 07:39:17;;;;;;;8.37;6.73;;;12.30;96.50;;;;;;5073625;28;20335;-64
2021/04/18 07:41:45;;;;;;;9.17;7.17;;;12.40;96.10;;;;;;5074349;28;20227;-63
2021/04/18 07:44:16;;;;;;;9.43;7.07;;;12.60;95.80;;;;;;5074393;28;20227;-63
2021/04/18 07:46:48;;;;;;;8.17;6.40;;;12.70;95.00;;;;;;5074186;28;20204;-62
2021/04/18 07:49:15;;;;;;;7.80;6.17;;;12.70;94.00;;;;;;5074462;28;20225;-63
2021/04/18 07:51:43;;;;;;;7.20;6.07;;;12.30;94.40;;;;;;5075323;28;20215;-63
2021/04/18 07:54:11;;;;;;;7.30;6.30;;;12.00;94.50;;;;;;5074992;28;20275;-64
2021/04/18 07:56:41;;;;;;;9.27;6.50;;;11.90;95.10;;;;;;5074635;28;20205;-65
2021/04/18 07:59:08;;;;;;;7.27;6.53;;;11.80;95.70;;;;;;5072981;28;20233;-65
2021/04/18 08:01:34;;;;;;;7.50;6.63;;;12.00;95.00;;;;;;5072704;28;20212;-65
2021/04/18 08:04:01;;;;;;;8.43;6.23;;;12.20;94.70;;;;;;5073041;28;20200;-64
2021/04/18 08:06:27;;;;;;;7.53;6.53;;;12.40;94.60;;;;;;5073401;28;20209;-64
2021/04/18 08:08:54;;;;;;;9.07;6.50;;;12.60;94.20;;;;;;5072664;28;20723;-65
2021/04/18 08:11:23;;;;;;;10.17;6.47;;;12.80;94.20;;;;;;5071983;28;20665;-65
2021/04/18 08:13:51;;;;;;;7.00;6.30;;;13.00;93.60;;;;;;5073378;28;20225;-65
2021/04/18 08:16:26;;;;;;;7.77;6.60;;;13.10;92.80;;;;;;5073115;28;20219;-64
2021/04/18 08:18:53;;;;;;;6.73;5.97;;;13.10;92.70;;;;;;5073397;28;20224;-65
2021/04/18 08:21:29;;;;;;;7.73;6.43;;;13.20;92.30;;;;;;5072914;28;20261;-64
2021/04/18 08:23:56;;;;;;;7.73;5.70;;;13.00;92.60;;;;;;5072612;28;20345;-65
2021/04/18 08:26:26;;;;;;;8.37;6.00;;;12.80;92.20;;;;;;5072772;28;20205;-65
2021/04/18 08:29:12;;;;;;;6.87;6.17;;;12.40;92.60;;;;;;5071971;28;20781;-65
2021/04/18 08:32:09;;;;;;;7.83;6.40;;;12.20;93.00;;;;;;5072295;28;20668;-65
2021/04/18 08:34:38;;;;;;;9.53;6.80;;;12.30;93.20;;;;;;5072457;28;20238;-65
2021/04/18 08:37:14;;;;;;;10.17;6.57;;;12.70;92.80;;;;;;5072847;28;20205;-64
2021/04/18 08:39:41;;;;;;;9.03;5.37;;;13.10;91.90;;;;;;5072299;28;20231;-65
2021/04/18 08:42:22;;;;;;;7.23;5.57;;;13.50;90.90;;;;;;5072372;28;20300;-65
2021/04/18 08:44:48;;;;;;;7.90;5.27;;;13.70;90.00;;;;;;5071818;28;20212;-65
2021/04/18 08:47:16;;;;;;;7.67;5.47;;;13.60;88.60;;;;;;5071831;28;20357;-64
2021/04/18 08:49:46;;;;;;;6.03;5.03;;;13.30;88.50;;;;;;5071783;28;20221;-65
2021/04/18 08:52:16;;;;;;;9.30;6.40;;;13.10;89.30;;;;;;5072098;28;20288;-65
2021/04/18 08:54:44;;;;;;;9.10;6.03;;;13.10;90.00;;;;;;5071794;28;20217;-65
2021/04/18 08:57:12;;;;;;;6.93;5.53;;;13.40;90.20;;;;;;5072147;28;20301;-65
2021/04/18 08:59:40;;;;;;;8.63;5.10;;;13.90;89.00;;;;;;5073006;28;20229;-66
2021/04/18 09:02:08;;;;;;;6.27;5.10;;;14.20;86.60;;;;;;5072978;28;20205;-65
2021/04/18 09:04:36;;;;;;;6.97;5.13;;;14.60;84.60;;;;;;5072957;28;20213;-65
2021/04/18 09:07:04;;;;;;;6.77;5.17;;;14.80;84.20;;;;;;5073279;28;20205;-65
2021/04/18 09:09:30;;;;;;;8.43;5.23;;;15.20;84.30;;;;;;5095977;22;20297;-59
2021/04/18 09:11:58;;;;;;;7.47;5.23;;;15.50;82.60;;;;;;5073796;28;20209;-59
2021/04/18 09:14:27;;;;;;;7.40;5.27;;;15.60;80.50;;;;;;5074144;28;20225;-59
2021/04/18 09:17:06;;;;;;;8.13;5.70;;;15.50;80.60;;;;;;5074735;28;20667;-59
2021/04/18 09:19:32;;;;;;;6.77;5.23;;;15.30;79.90;;;;;;5074416;28;20634;-61
2021/04/18 09:22:04;;;;;;;8.77;5.93;;;15.30;79.30;;;;;;5074308;28;20205;-60
2021/04/18 09:24:31;;;;;;;8.90;5.20;;;15.20;79.10;;;;;;5074310;28;20197;-61
2021/04/18 09:27:00;;;;;;;8.77;5.37;;;15.20;79.60;;;;;;5073891;28;20208;-60
2021/04/18 09:29:28;;;;;;;6.03;4.70;;;15.30;79.00;;;;;;5074218;28;20235;-59
2021/04/18 09:32:00;;;;;;;8.60;5.27;;;15.30;77.20;;;;;;5074519;28;20691;-59
2021/04/18 09:34:27;;;;;;;6.03;4.93;;;15.20;77.10;;;;;;5073845;28;20252;-59
2021/04/18 09:36:55;;;;;;;21.77;14.23;;;15.30;78.00;;;;;;5073989;28;20261;-60
2021/04/18 09:39:25;;;;;;;6.43;4.63;;;15.70;78.00;;;;;;5073400;28;20220;-59
2021/04/18 09:41:51;;;;;;;7.20;4.87;;;16.10;74.80;;;;;;5073796;28;20672;-59
2021/04/18 09:44:31;;;;;;;8.93;6.00;;;16.60;73.40;;;;;;5073600;28;20205;-59
2021/04/18 09:47:03;;;;;;;6.13;4.90;;;16.90;72.10;;;;;;5073730;28;20215;-59
2021/04/18 09:49:43;;;;;;;7.47;5.00;;;17.10;71.60;;;;;;5073484;28;20231;-60
2021/04/18 09:52:09;;;;;;;8.93;5.10;;;17.10;70.30;;;;;;5073530;28;20209;-59
2021/04/18 09:54:36;;;;;;;5.87;4.50;;;16.90;70.80;;;;;;5073542;28;20228;-59
2021/04/18 09:57:20;;;;;;;6.77;4.80;;;16.50;71.20;;;;;;5073715;28;20208;-60
2021/04/18 10:00:05;;;;;;;6.67;5.00;;;16.30;72.10;;;;;;5073795;28;20603;-60
2021/04/18 10:02:32;;;;;;;8.10;5.07;;;16.10;73.00;;;;;;5072657;28;20278;-60
2021/04/18 10:05:10;;;;;;;11.20;7.40;;;16.10;73.50;;;;;;5072395;28;20434;-61
2021/04/18 10:07:36;;;;;;;9.27;5.60;;;16.30;75.00;;;;;;5073239;28;20201;-61
2021/04/18 10:10:03;;;;;;;6.40;4.97;;;16.60;73.70;;;;;;5073107;28;20236;-62
2021/04/18 10:12:44;;;;;;;6.93;5.33;;;16.90;73.10;;;;;;5073079;28;20213;-60
2021/04/18 10:15:11;;;;;;;6.80;4.90;;;17.20;72.40;;;;;;5073180;28;20225;-60
2021/04/18 10:17:38;;;;;;;7.77;5.10;;;17.50;71.10;;;;;;5072817;28;20209;-62
2021/04/18 10:20:05;;;;;;;8.47;5.03;;;17.80;70.30;;;;;;5072795;28;20232;-62
2021/04/18 10:22:31;;;;;;;6.57;5.50;;;18.00;69.30;;;;;;5071396;28;20205;-63
2021/04/18 10:24:59;;;;;;;6.97;4.90;;;18.20;68.50;;;;;;5072008;28;20651;-62
2021/04/18 10:27:26;;;;;;;8.60;6.70;;;18.40;67.80;;;;;;5072693;28;20247;-62
2021/04/18 10:29:54;;;;;;;7.17;5.37;;;18.50;67.90;;;;;;5073074;28;20228;-62
2021/04/18 10:32:23;;;;;;;7.73;5.53;;;18.50;66.80;;;;;;5073100;28;20577;-61
2021/04/18 10:34:51;;;;;;;6.77;4.93;;;18.50;66.10;;;;;;5072452;28;20316;-60
2021/04/18 10:37:18;;;;;;;7.17;6.47;;;18.50;66.40;;;;;;5072591;28;20209;-60
2021/04/18 10:39:45;;;;;;;6.40;5.00;;;18.40;65.60;;;;;;5072079;28;20495;-60
2021/04/18 10:42:12;;;;;;;10.03;4.97;;;18.30;66.30;;;;;;5072730;28;20239;-61
2021/04/18 10:44:38;;;;;;;9.30;5.70;;;18.30;66.50;;;;;;5072452;28;20258;-62
2021/04/18 10:47:08;;;;;;;5.50;5.00;;;18.40;66.10;;;;;;5070006;28;20208;-60
2021/04/18 10:49:35;;;;;;;6.70;5.53;;;18.30;65.40;;;;;;5071340;28;20282;-59
2021/04/18 10:52:01;;;;;;;6.53;5.30;;;17.80;66.60;;;;;;5072139;28;20430;-58
2021/04/18 10:54:27;;;;;;;9.23;5.60;;;17.50;66.90;;;;;;5072037;28;20735;-57
2021/04/18 10:56:54;;;;;;;6.23;5.37;;;17.30;67.40;;;;;;5071951;28;20600;-58
2021/04/18 10:59:22;;;;;;;5.90;4.93;;;17.20;66.60;;;;;;5070068;28;20228;-60
2021/04/18 11:01:48;;;;;;;8.47;6.23;;;17.30;67.60;;;;;;5071771;28;20277;-59
2021/04/18 11:04:16;;;;;;;8.10;5.73;;;17.60;66.90;;;;;;5072062;28;20240;-59
2021/04/18 11:06:43;;;;;;;5.57;4.97;;;17.90;66.60;;;;;;5071914;28;20254;-59
2021/04/18 11:09:10;;;;;;;8.13;5.60;;;18.10;65.90;;;;;;5071414;28;20244;-59
2021/04/18 11:11:36;;;;;;;7.50;6.50;;;18.10;66.10;;;;;;5072116;28;20207;-61
2021/04/18 11:14:03;;;;;;;6.00;5.20;;;18.20;66.10;;;;;;5071771;28;20201;-59
2021/04/18 11:16:30;;;;;;;7.63;5.13;;;18.20;65.80;;;;;;5071302;28;20664;-58
2021/04/18 11:18:56;;;;;;;7.97;5.07;;;18.10;65.10;;;;;;5071816;28;20909;-61
2021/04/18 11:21:23;;;;;;;5.97;5.17;;;17.90;65.40;;;;;;5072540;28;20211;-60
2021/04/18 11:23:50;;;;;;;8.27;6.60;;;17.60;66.20;;;;;;5072516;28;20623;-60
2021/04/18 11:26:16;;;;;;;7.17;5.73;;;17.50;66.60;;;;;;5071976;28;20672;-60
2021/04/18 11:28:42;;;;;;;6.83;4.90;;;17.70;66.70;;;;;;5071781;28;20228;-60
2021/04/18 11:31:08;;;;;;;6.13;5.10;;;17.90;66.30;;;;;;5071838;28;20216;-61
2021/04/18 11:33:36;;;;;;;6.57;5.17;;;18.00;65.70;;;;;;5070971;28;20254;-60
2021/04/18 11:36:02;;;;;;;7.00;4.90;;;17.80;66.40;;;;;;5071351;28;20700;-63
2021/04/18 11:38:28;;;;;;;7.27;5.40;;;17.80;67.20;;;;;;5071299;28;20213;-61
2021/04/18 11:40:55;;;;;;;7.23;5.47;;;17.80;67.20;;;;;;5071380;28;20201;-61
2021/04/18 11:43:21;;;;;;;12.00;9.10;;;18.00;67.40;;;;;;5071127;28;20204;-61
2021/04/18 11:45:47;;;;;;;8.93;5.63;;;18.10;66.20;;;;;;5072323;28;20353;-60
2021/04/18 11:48:14;;;;;;;6.07;5.10;;;18.10;65.30;;;;;;5072339;28;20205;-59
2021/04/18 11:50:40;;;;;;;8.93;5.63;;;18.30;65.60;;;;;;5073209;28;20211;-60
2021/04/18 11:53:06;;;;;;;7.27;5.90;;;18.30;64.60;;;;;;5071462;28;20213;-61
2021/04/18 11:55:34;;;;;;;8.57;5.23;;;18.00;64.80;;;;;;5070976;28;20294;-61
2021/04/18 11:58:01;;;;;;;8.67;7.13;;;18.00;65.40;;;;;;5070830;28;20201;-61
2021/04/18 12:00:27;;;;;;;8.03;5.47;;;17.90;64.80;;;;;;5070794;28;20549;-61
2021/04/18 12:02:54;;;;;;;6.70;5.77;;;17.80;65.70;;;;;;5071009;28;20205;-61
2021/04/18 12:05:20;;;;;;;8.00;5.20;;;17.80;65.20;;;;;;5070654;28;20197;-60
2021/04/18 12:07:46;;;;;;;7.60;5.63;;;17.90;65.20;;;;;;5071007;28;20631;-59
2021/04/18 12:10:13;;;;;;;6.87;5.50;;;17.50;65.30;;;;;;5070913;28;20278;-60
2021/04/18 12:12:40;;;;;;;9.23;6.20;;;16.90;66.90;;;;;;5071329;28;20209;-60
2021/04/18 12:15:09;;;;;;;5.83;5.23;;;16.40;68.00;;;;;;5070428;28;20270;-60
2021/04/18 12:17:36;;;;;;;10.53;6.60;;;16.40;68.80;;;;;;5070681;28;20673;-60
2021/04/18 12:20:05;;;;;;;7.37;5.83;;;16.20;67.50;;;;;;5070520;28;20319;-60
2021/04/18 12:22:31;;;;;;;8.20;5.60;;;16.00;68.30;;;;;;5070137;28;20201;-59
2021/04/18 12:24:58;;;;;;;8.83;5.87;;;16.20;68.50;;;;;;5071040;28;20213;-60
2021/04/18 12:27:24;;;;;;;6.93;4.97;;;16.50;67.30;;;;;;5070679;28;20216;-59
2021/04/18 12:29:51;;;;;;;6.00;4.63;;;16.60;66.60;;;;;;5070897;28;20315;-61
2021/04/18 12:32:18;;;;;;;7.33;4.80;;;16.40;66.80;;;;;;5070666;28;20204;-60
2021/04/18 12:34:44;;;;;;;6.57;4.77;;;16.20;67.20;;;;;;5070960;28;20247;-60
2021/04/18 12:37:10;;;;;;;9.00;5.60;;;16.10;67.60;;;;;;5070621;28;20574;-61
2021/04/18 12:39:37;;;;;;;6.90;5.47;;;16.30;67.60;;;;;;5070608;28;20232;-61
2021/04/18 12:42:03;;;;;;;7.97;6.00;;;16.60;67.30;;;;;;5070596;28;20204;-61
2021/04/18 12:44:29;;;;;;;8.37;4.90;;;16.80;66.20;;;;;;5071543;28;20204;-63
2021/04/18 12:46:56;;;;;;;8.70;5.83;;;16.50;66.10;;;;;;5074218;28;20204;-62
2021/04/18 12:49:23;;;;;;;7.67;5.30;;;16.40;66.80;;;;;;5073604;28;20221;-60
2021/04/18 12:51:49;;;;;;;9.50;5.80;;;16.30;66.10;;;;;;5074964;28;20205;-61